createdAt,value
2022-09-27T00:00:43.030Z,6.93
2022-09-27T00:03:27.189Z,6.83
2022-09-27T00:06:15.024Z,7.83
2022-09-27T00:09:01.028Z,7.27
2022-09-27T00:11:45.585Z,6.50
2022-09-27T00:14:29.801Z,6.93
2022-09-27T00:17:13.723Z,7.97
2022-09-27T00:20:00.163Z,8.93
2022-09-27T00:22:44.071Z,6.57
2022-09-27T00:25:29.230Z,7.13
2022-09-27T00:28:14.302Z,6.73
2022-09-27T00:30:59.326Z,7.47
2022-09-27T00:33:43.270Z,7.10
2022-09-27T00:36:28.405Z,7.00
2022-09-27T00:39:12.681Z,7.47
2022-09-27T00:41:58.067Z,7.17
2022-09-27T00:45:10.331Z,6.70
2022-09-27T00:47:59.056Z,7.40
2022-09-27T00:50:46.994Z,6.97
2022-09-27T00:53:35.347Z,6.77
2022-09-27T00:56:23.987Z,7.13
2022-09-27T00:59:15.669Z,7.40
2022-09-27T01:01:59.972Z,6.73
2022-09-27T01:04:45.947Z,7.20
2022-09-27T01:07:29.972Z,6.93
2022-09-27T01:10:14.560Z,7.87
2022-09-27T01:13:06.886Z,6.93
2022-09-27T01:16:00.808Z,7.50
2022-09-27T01:18:58.918Z,9.30
2022-09-27T01:21:49.321Z,7.40
2022-09-27T01:24:58.386Z,9.13
2022-09-27T01:28:12.956Z,7.57
2022-09-27T01:31:06.265Z,7.63
2022-09-27T01:34:02.355Z,8.87
2022-09-27T01:36:54.435Z,7.30
2022-09-27T01:39:48.055Z,7.30
2022-09-27T01:43:05.922Z,7.10
2022-09-27T01:46:01.003Z,6.77
2022-09-27T01:49:09.692Z,7.27
2022-09-27T01:51:57.529Z,6.80
2022-09-27T01:54:46.171Z,6.77
2022-09-27T01:57:38.276Z,8.23
2022-09-27T02:00:25.309Z,7.20
2022-09-27T02:03:17.061Z,7.40
2022-09-27T02:06:39.403Z,8.90
2022-09-27T02:09:38.185Z,6.68
2022-09-27T02:12:41.687Z,7.33
2022-09-27T02:15:35.291Z,7.07
2022-09-27T02:18:53.255Z,7.37
2022-09-27T02:21:46.760Z,7.07
2022-09-27T02:24:37.416Z,7.97
2022-09-27T02:27:28.140Z,7.17
2022-09-27T02:30:16.107Z,7.80
2022-09-27T02:33:04.257Z,7.40
2022-09-27T02:35:51.672Z,7.30
2022-09-27T02:38:36.288Z,8.90
2022-09-27T02:41:23.845Z,7.63
2022-09-27T02:44:13.320Z,7.37
2022-09-27T02:47:21.286Z,6.80
2022-09-27T02:50:26.308Z,7.60
2022-09-27T02:53:24.923Z,7.80
2022-09-27T02:56:27.287Z,6.83
2022-09-27T02:59:35.699Z,8.50
2022-09-27T03:02:40.434Z,8.30
2022-09-27T03:05:48.369Z,11.13
2022-09-27T03:08:35.842Z,8.15
2022-09-27T03:11:20.738Z,9.70
2022-09-27T03:14:09.299Z,9.90
2022-09-27T03:17:00.314Z,10.80
2022-09-27T03:20:03.493Z,9.57
2022-09-27T03:23:08.378Z,10.48
2022-09-27T03:25:54.795Z,10.13
2022-09-27T03:28:39.634Z,9.90
2022-09-27T03:31:23.981Z,9.52
2022-09-27T03:34:40.239Z,12.87
2022-09-27T03:37:24.947Z,11.63
2022-09-27T03:40:10.935Z,10.17
2022-09-27T03:42:57.001Z,10.40
2022-09-27T03:45:41.563Z,20.70
2022-09-27T03:48:28.494Z,26.88
2022-09-27T03:51:13.134Z,29.47
2022-09-27T03:53:57.941Z,34.87
2022-09-27T03:56:42.258Z,19.93
2022-09-27T03:59:28.003Z,20.23
2022-09-27T04:02:30.614Z,29.73
2022-09-27T04:05:53.039Z,13.53
2022-09-27T04:08:43.782Z,19.83
2022-09-27T04:11:28.132Z,29.13
2022-09-27T04:14:13.335Z,30.63
2022-09-27T04:17:18.600Z,49.00
2022-09-27T04:20:28.621Z,31.80
2022-09-27T04:23:13.802Z,22.97
2022-09-27T04:26:06.900Z,18.33
2022-09-27T04:29:10.346Z,15.93
2022-09-27T04:31:58.220Z,14.98
2022-09-27T04:35:20.855Z,10.13
2022-09-27T04:38:05.569Z,11.63
2022-09-27T04:40:50.703Z,15.30
2022-09-27T04:43:35.359Z,14.13
2022-09-27T04:46:21.433Z,12.48
2022-09-27T04:49:05.637Z,12.60
2022-09-27T04:51:54.257Z,17.65
2022-09-27T04:54:39.779Z,15.85
2022-09-27T04:57:28.353Z,14.32
2022-09-27T05:00:13.925Z,15.23
2022-09-27T05:02:59.322Z,12.75
2022-09-27T05:06:15.825Z,11.50
2022-09-27T05:09:02.130Z,12.27
2022-09-27T05:11:48.290Z,12.30
2022-09-27T05:14:50.340Z,10.15
2022-09-27T05:17:49.033Z,13.20
2022-09-27T05:21:08.069Z,13.05
2022-09-27T05:23:57.519Z,11.40
2022-09-27T05:26:43.117Z,12.52
2022-09-27T05:29:27.132Z,13.27
2022-09-27T05:32:25.077Z,9.90
2022-09-27T05:35:22.802Z,9.60
2022-09-27T05:38:06.644Z,10.77
2022-09-27T05:40:53.153Z,8.85
2022-09-27T05:43:38.723Z,9.90
2022-09-27T05:46:22.780Z,9.65
2022-09-27T05:49:06.687Z,8.52
2022-09-27T05:51:50.585Z,11.68
2022-09-27T05:54:34.887Z,7.78
2022-09-27T05:57:18.999Z,13.10
2022-09-27T06:00:09.440Z,7.90
2022-09-27T06:02:57.868Z,9.32
2022-09-27T06:06:20.498Z,7.93
2022-09-27T06:09:12.476Z,6.88
2022-09-27T06:11:56.994Z,6.30
2022-09-27T06:14:42.835Z,6.05
2022-09-27T06:17:35.369Z,7.13
2022-09-27T06:20:25.608Z,5.50
2022-09-27T06:23:11.593Z,10.20
2022-09-27T06:25:55.690Z,10.50
2022-09-27T06:28:47.868Z,5.90
2022-09-27T06:31:32.330Z,6.97
2022-09-27T06:34:28.303Z,8.43
2022-09-27T06:37:12.550Z,6.63
2022-09-27T06:39:56.575Z,5.40
2022-09-27T06:43:04.341Z,6.18
2022-09-27T06:46:19.527Z,5.40
2022-09-27T06:49:33.837Z,5.65
2022-09-27T06:52:17.714Z,5.20
2022-09-27T06:55:01.676Z,5.93
2022-09-27T06:58:05.316Z,5.03
2022-09-27T07:00:50.898Z,6.22
2022-09-27T07:04:00.773Z,4.88
2022-09-27T07:07:00.721Z,5.13
2022-09-27T07:09:48.824Z,5.03
2022-09-27T07:12:32.648Z,5.20
2022-09-27T07:15:16.682Z,5.10
2022-09-27T07:18:01.671Z,5.03
2022-09-27T07:20:46.340Z,4.90
2022-09-27T07:23:31.742Z,4.68
2022-09-27T07:26:16.234Z,4.82
2022-09-27T07:29:00.855Z,6.70
2022-09-27T07:31:46.386Z,5.75
2022-09-27T07:34:30.270Z,6.28
2022-09-27T07:37:14.427Z,6.10
2022-09-27T07:39:59.927Z,6.88
2022-09-27T07:42:44.080Z,5.35
2022-09-27T07:45:28.217Z,5.05
2022-09-27T07:48:39.415Z,7.05
2022-09-27T07:51:46.285Z,5.93
2022-09-27T07:54:43.703Z,4.43
2022-09-27T07:57:45.057Z,4.38
2022-09-27T08:00:29.599Z,4.57
2022-09-27T08:03:16.302Z,5.10
2022-09-27T08:06:04.443Z,4.75
2022-09-27T08:08:48.723Z,8.07
2022-09-27T08:11:34.004Z,6.03
2022-09-27T08:14:21.752Z,4.60
2022-09-27T08:17:06.919Z,7.68
2022-09-27T08:20:11.095Z,6.03
2022-09-27T08:23:33.597Z,3.97
2022-09-27T08:26:32.318Z,4.05
2022-09-27T08:29:26.149Z,6.93
2022-09-27T08:32:13.297Z,6.90
2022-09-27T08:34:57.180Z,6.30
2022-09-27T08:37:41.073Z,7.88
2022-09-27T08:40:28.214Z,4.50
2022-09-27T08:43:20.831Z,5.85
2022-09-27T08:46:19.945Z,8.43
2022-09-27T08:49:08.812Z,5.28
2022-09-27T08:51:55.802Z,5.30
2022-09-27T08:54:41.167Z,4.32
2022-09-27T08:57:26.501Z,4.25
2022-09-27T09:00:13.987Z,8.93
2022-09-27T09:03:03.972Z,5.47
2022-09-27T09:06:05.475Z,4.20
2022-09-27T09:09:02.477Z,4.65
2022-09-27T09:12:18.628Z,4.95
2022-09-27T09:15:17.703Z,4.70
2022-09-27T09:18:23.381Z,7.47
2022-09-27T09:21:35.305Z,4.93
2022-09-27T09:24:33.848Z,5.45
2022-09-27T09:27:27.108Z,5.78
2022-09-27T09:30:23.437Z,4.40
2022-09-27T09:33:26.056Z,4.65
2022-09-27T09:36:21.338Z,6.85
2022-09-27T09:39:13.476Z,9.90
2022-09-27T09:42:08.824Z,4.53
2022-09-27T09:45:01.181Z,6.13
2022-09-27T09:47:56.022Z,5.50
2022-09-27T09:50:46.881Z,9.10
2022-09-27T09:53:44.290Z,7.28
2022-09-27T09:56:33.253Z,10.18
2022-09-27T09:59:24.563Z,7.22
2022-09-27T10:02:23.270Z,5.55
2022-09-27T10:05:09.084Z,6.70
2022-09-27T10:07:58.890Z,5.47
2022-09-27T10:10:43.148Z,5.32
2022-09-27T10:13:56.988Z,5.15
2022-09-27T10:16:43.301Z,8.82
2022-09-27T10:19:30.681Z,7.63
2022-09-27T10:22:25.146Z,7.15
2022-09-27T10:25:12.575Z,4.88
2022-09-27T10:28:03.528Z,4.78
2022-09-27T10:30:57.359Z,6.88
2022-09-27T10:33:55.187Z,4.85
2022-09-27T10:36:41.311Z,4.30
2022-09-27T10:39:27.682Z,4.00
2022-09-27T10:42:33.719Z,8.00
2022-09-27T10:45:28.164Z,4.53
2022-09-27T10:48:23.664Z,5.05
2022-09-27T10:51:25.062Z,5.03
2022-09-27T10:54:22.067Z,7.63
2022-09-27T10:57:17.615Z,5.75
2022-09-27T11:00:08.418Z,6.00
2022-09-27T11:02:55.694Z,7.40
2022-09-27T11:05:44.281Z,8.55
2022-09-27T11:08:32.244Z,10.13
2022-09-27T11:11:31.204Z,6.93
2022-09-27T11:14:23.199Z,5.55
2022-09-27T11:17:19.004Z,4.20
2022-09-27T11:20:26.230Z,8.15
2022-09-27T11:23:34.889Z,7.15
2022-09-27T11:26:38.674Z,8.00
2022-09-27T11:29:31.897Z,5.10
2022-09-27T11:33:07.111Z,7.18
2022-09-27T11:36:01.342Z,8.13
2022-09-27T11:39:02.901Z,5.38
2022-09-27T11:42:07.382Z,6.47
2022-09-27T11:45:34.263Z,5.90
2022-09-27T11:48:28.781Z,5.43
2022-09-27T11:51:26.874Z,5.40
2022-09-27T11:54:36.102Z,7.80
2022-09-27T11:57:26.535Z,8.45
2022-09-27T12:00:19.046Z,7.60
2022-09-27T12:03:47.890Z,9.60
2022-09-27T12:06:49.064Z,6.18
2022-09-27T12:09:37.510Z,7.30
2022-09-27T12:12:25.706Z,4.97
2022-09-27T12:15:17.088Z,5.55
2022-09-27T12:18:15.383Z,9.20
2022-09-27T12:21:03.160Z,10.10
2022-09-27T12:23:51.556Z,7.63
2022-09-27T12:26:56.446Z,6.30
2022-09-27T12:29:43.893Z,6.38
2022-09-27T12:32:33.309Z,6.07
2022-09-27T12:35:22.877Z,5.55
2022-09-27T12:38:15.118Z,10.05
2022-09-27T12:41:01.457Z,8.52
2022-09-27T12:43:54.865Z,5.57
2022-09-27T12:47:00.859Z,8.02
2022-09-27T12:49:52.544Z,6.20
2022-09-27T12:52:42.603Z,5.90
2022-09-27T12:55:55.699Z,6.38
2022-09-27T12:59:03.785Z,9.57
2022-09-27T13:02:28.355Z,6.10
2022-09-27T13:05:46.136Z,10.40
2022-09-27T13:09:04.657Z,10.25
2022-09-27T13:11:58.672Z,5.82
2022-09-27T13:14:51.838Z,10.85
2022-09-27T13:17:53.352Z,7.00
2022-09-27T13:21:00.307Z,5.85
2022-09-27T13:24:47.258Z,7.03
2022-09-27T13:27:51.563Z,7.63
2022-09-27T13:30:46.405Z,8.88
2022-09-27T13:33:41.604Z,7.07
2022-09-27T13:36:34.316Z,8.63
2022-09-27T13:39:25.794Z,7.70
2022-09-27T13:42:37.172Z,15.18
2022-09-27T13:45:27.233Z,15.13
2022-09-27T13:48:17.892Z,12.73
2022-09-27T13:51:06.342Z,7.88
2022-09-27T13:53:59.015Z,6.70
2022-09-27T13:56:54.322Z,5.90
2022-09-27T13:59:44.495Z,11.30
2022-09-27T14:02:59.169Z,7.43
2022-09-27T14:05:53.330Z,7.78
2022-09-27T14:08:44.727Z,6.43
2022-09-27T14:11:32.278Z,8.15
2022-09-27T14:14:20.910Z,7.35
2022-09-27T14:17:11.702Z,7.85
2022-09-27T14:19:57.543Z,7.63
2022-09-27T14:22:44.201Z,6.90
2022-09-27T14:25:28.562Z,7.40
2022-09-27T14:28:21.705Z,6.93
2022-09-27T14:31:17.895Z,6.82
2022-09-27T14:34:19.797Z,14.35
2022-09-27T14:37:23.731Z,9.45
2022-09-27T14:40:21.911Z,7.43
2022-09-27T14:43:06.746Z,9.63
2022-09-27T14:45:53.998Z,10.05
2022-09-27T14:48:39.296Z,7.95
2022-09-27T14:51:28.185Z,9.95
2022-09-27T14:54:22.266Z,9.07
2022-09-27T14:57:08.347Z,6.68
2022-09-27T14:59:52.131Z,12.07
2022-09-27T15:02:38.238Z,7.80
2022-09-27T15:05:24.700Z,10.55
2022-09-27T15:08:08.629Z,7.63
2022-09-27T15:10:54.659Z,11.98
2022-09-27T15:13:39.704Z,10.25
2022-09-27T15:16:25.453Z,7.55
2022-09-27T15:19:17.589Z,9.48
2022-09-27T15:22:33.041Z,8.57
2022-09-27T15:25:32.558Z,11.02
2022-09-27T15:28:20.778Z,9.65
2022-09-27T15:31:05.748Z,9.40
2022-09-27T15:33:56.208Z,6.03
2022-09-27T15:36:55.828Z,6.50
2022-09-27T15:39:41.106Z,9.30
2022-09-27T15:42:24.785Z,16.25
2022-09-27T15:45:29.097Z,9.15
2022-09-27T15:48:16.329Z,9.85
2022-09-27T15:51:01.258Z,8.35
2022-09-27T15:53:46.090Z,13.45
2022-09-27T15:56:29.860Z,7.85
2022-09-27T15:59:17.943Z,10.90
2022-09-27T16:02:08.174Z,8.73
2022-09-27T16:04:52.263Z,9.15
2022-09-27T16:07:36.293Z,8.85
2022-09-27T16:10:22.038Z,6.68
2022-09-27T16:13:05.818Z,7.43
2022-09-27T16:15:50.197Z,9.52
2022-09-27T16:18:35.410Z,13.57
2022-09-27T16:21:19.165Z,11.02
2022-09-27T16:24:06.160Z,7.50
2022-09-27T16:26:50.375Z,8.80
2022-09-27T16:29:34.150Z,9.90
2022-09-27T16:32:18.234Z,9.95
2022-09-27T16:35:03.453Z,6.25
2022-09-27T16:37:47.763Z,7.57
2022-09-27T16:40:32.153Z,10.10
2022-09-27T16:43:16.743Z,12.07
2022-09-27T16:46:09.111Z,12.57
2022-09-27T16:48:54.647Z,10.13
2022-09-27T16:51:57.299Z,11.30
2022-09-27T16:54:41.453Z,10.73
2022-09-27T16:57:25.423Z,7.40
2022-09-27T17:00:10.785Z,10.98
2022-09-27T17:02:55.034Z,11.52
2022-09-27T17:05:39.087Z,12.60
2022-09-27T17:08:27.271Z,9.80
2022-09-27T17:11:14.874Z,7.57
2022-09-27T17:13:59.404Z,8.95
2022-09-27T17:16:43.545Z,12.07
2022-09-27T17:19:28.321Z,7.78
2022-09-27T17:22:12.035Z,11.70
2022-09-27T17:24:57.246Z,10.30
2022-09-27T17:27:41.070Z,6.72
2022-09-27T17:30:26.247Z,6.00
2022-09-27T17:33:10.293Z,10.43
2022-09-27T17:36:02.111Z,10.77
2022-09-27T17:38:46.895Z,9.38
2022-09-27T17:41:37.557Z,8.43
2022-09-27T17:44:27.077Z,9.38
2022-09-27T17:47:29.026Z,4.75
2022-09-27T17:50:28.977Z,8.10
2022-09-27T17:53:12.998Z,6.00
2022-09-27T17:56:03.764Z,7.20
2022-09-27T17:58:49.974Z,5.47
2022-09-27T18:01:34.580Z,8.73
2022-09-27T18:04:20.733Z,12.43
2022-09-27T18:07:04.825Z,5.72
2022-09-27T18:09:50.213Z,7.88
2022-09-27T18:12:35.137Z,9.02
2022-09-27T18:15:22.045Z,6.22
2022-09-27T18:18:06.293Z,5.43
2022-09-27T18:20:50.160Z,11.68
2022-09-27T18:23:34.691Z,4.47
2022-09-27T18:26:20.216Z,4.53
2022-09-27T18:29:07.165Z,7.93
2022-09-27T18:31:52.418Z,5.75
2022-09-27T18:34:36.432Z,4.72
2022-09-27T18:37:20.520Z,5.18
2022-09-27T18:40:05.130Z,6.50
2022-09-27T18:42:49.156Z,9.68
2022-09-27T18:45:37.323Z,5.78
2022-09-27T18:48:22.814Z,7.38
2022-09-27T18:51:08.434Z,8.93
2022-09-27T18:53:57.418Z,6.95
2022-09-27T18:56:43.200Z,5.72
2022-09-27T18:59:28.974Z,7.60
2022-09-27T19:02:13.115Z,4.70
2022-09-27T19:04:58.886Z,5.78
2022-09-27T19:07:43.104Z,4.78
2022-09-27T19:10:27.244Z,9.10
2022-09-27T19:13:11.450Z,9.88
2022-09-27T19:15:57.000Z,8.50
2022-09-27T19:18:43.109Z,5.65
2022-09-27T19:21:30.570Z,3.13
2022-09-27T19:24:16.903Z,3.10
2022-09-27T19:27:00.611Z,4.32
2022-09-27T19:29:46.078Z,2.92
2022-09-27T19:32:29.845Z,3.60
2022-09-27T19:35:14.003Z,3.58
2022-09-27T19:37:59.351Z,2.70
2022-09-27T19:40:43.177Z,4.07
2022-09-27T19:43:27.046Z,4.95
2022-09-27T19:46:14.201Z,4.28
2022-09-27T19:48:58.268Z,3.60
2022-09-27T19:51:42.194Z,5.15
2022-09-27T19:54:27.408Z,3.63
2022-09-27T19:57:11.363Z,3.17
2022-09-27T19:59:55.323Z,2.63
2022-09-27T20:02:39.434Z,3.28
2022-09-27T20:05:23.692Z,4.03
2022-09-27T20:08:07.610Z,3.22
2022-09-27T20:10:58.168Z,4.70
2022-09-27T20:13:44.898Z,3.78
2022-09-27T20:16:29.375Z,3.35
2022-09-27T20:19:13.554Z,3.13
2022-09-27T20:21:57.780Z,2.92
2022-09-27T20:24:41.733Z,3.20
2022-09-27T20:27:26.842Z,2.67
2022-09-27T20:30:12.369Z,3.60
2022-09-27T20:33:09.962Z,3.70
2022-09-27T20:35:55.102Z,3.80
2022-09-27T20:38:39.124Z,3.30
2022-09-27T20:41:26.665Z,5.72
2022-09-27T20:44:13.795Z,3.67
2022-09-27T20:46:59.327Z,3.65
2022-09-27T20:49:43.173Z,3.35
2022-09-27T20:52:26.897Z,4.10
2022-09-27T20:55:11.876Z,4.20
2022-09-27T20:57:57.681Z,2.22
2022-09-27T21:00:43.185Z,2.05
2022-09-27T21:03:27.036Z,3.08
2022-09-27T21:06:13.023Z,3.05
2022-09-27T21:08:56.916Z,3.20
2022-09-27T21:11:40.695Z,2.20
2022-09-27T21:14:24.531Z,2.73
2022-09-27T21:17:10.216Z,3.27
2022-09-27T21:19:54.199Z,2.97
2022-09-27T21:22:38.477Z,1.90
2022-09-27T21:25:22.699Z,2.10
2022-09-27T21:28:06.569Z,2.13
2022-09-27T21:30:50.454Z,1.50
2022-09-27T21:33:36.248Z,1.93
2022-09-27T21:36:20.328Z,1.73
2022-09-27T21:39:04.870Z,2.03
2022-09-27T21:41:48.702Z,1.50
2022-09-27T21:44:32.461Z,2.43
2022-09-27T21:47:16.271Z,1.90
2022-09-27T21:50:01.506Z,2.10
2022-09-27T21:52:46.747Z,2.30
2022-09-27T21:55:30.560Z,2.92
2022-09-27T21:58:14.316Z,4.93
2022-09-27T22:00:58.034Z,2.67
2022-09-27T22:03:43.636Z,2.90
2022-09-27T22:06:30.722Z,2.87
2022-09-27T22:09:17.099Z,4.53
2022-09-27T22:12:01.080Z,3.43
2022-09-27T22:14:44.869Z,3.23
2022-09-27T22:17:28.979Z,4.27
2022-09-27T22:20:12.966Z,3.43
2022-09-27T22:22:58.530Z,3.70
2022-09-27T22:25:42.429Z,4.40
2022-09-27T22:28:27.090Z,5.47
2022-09-27T22:31:11.736Z,4.53
2022-09-27T22:33:57.983Z,3.83
2022-09-27T22:36:42.394Z,4.33
2022-09-27T22:39:27.894Z,4.33
2022-09-27T22:42:11.705Z,3.50
2022-09-27T22:44:55.579Z,5.07
2022-09-27T22:47:39.881Z,4.20
2022-09-27T22:50:23.998Z,4.97
2022-09-27T22:53:07.941Z,3.83
2022-09-27T22:56:04.350Z,4.40
2022-09-27T22:58:49.928Z,4.33
2022-09-27T23:01:34.178Z,7.03
2022-09-27T23:04:18.103Z,4.17
2022-09-27T23:07:02.030Z,4.20
2022-09-27T23:09:46.223Z,5.90
2022-09-27T23:12:32.202Z,5.23
2022-09-27T23:15:16.232Z,5.13
2022-09-27T23:18:00.517Z,4.13
2022-09-27T23:20:45.099Z,5.17
2022-09-27T23:23:29.164Z,4.50
2022-09-27T23:26:15.762Z,4.47
2022-09-27T23:29:02.757Z,4.33
2022-09-27T23:31:46.681Z,2.73
2022-09-27T23:34:30.587Z,3.33
2022-09-27T23:37:14.485Z,2.43
2022-09-27T23:39:58.461Z,2.70
2022-09-27T23:42:42.321Z,2.03
2022-09-27T23:45:28.742Z,2.23
2022-09-27T23:48:13.065Z,2.30
2022-09-27T23:50:57.483Z,2.00
2022-09-27T23:53:41.759Z,2.37
2022-09-27T23:56:26.248Z,2.20
2022-09-27T23:59:10.211Z,2.17
